createdAt,value
2019-05-01T00:01:59.503Z,227.80
2019-05-01T00:07:07.798Z,241.50
2019-05-01T00:12:13.781Z,454.90
2019-05-01T00:22:27.775Z,261.67
2019-05-01T00:27:33.742Z,265.27
2019-05-01T00:32:39.833Z,269.50
2019-05-01T00:42:51.657Z,267.87
2019-05-01T00:47:57.745Z,271.33
2019-05-01T00:53:03.704Z,283.27
2019-05-01T00:58:09.569Z,280.47
2019-05-01T01:03:15.646Z,279.33
2019-05-01T01:08:21.621Z,286.50
2019-05-01T01:13:27.611Z,291.87
2019-05-01T01:18:33.986Z,290.50
2019-05-01T01:28:45.801Z,290.67
2019-05-01T01:33:51.773Z,283.65
2019-05-01T01:44:08.142Z,286.30
2019-05-01T01:54:20.013Z,291.10
2019-05-01T01:59:26.137Z,296.03
2019-05-01T02:04:39.845Z,292.70
2019-05-01T02:14:51.730Z,278.83
2019-05-01T02:19:57.697Z,277.67
2019-05-01T02:25:04.203Z,295.10
2019-05-01T02:30:11.794Z,293.10
2019-05-01T02:35:17.767Z,291.17
2019-05-01T02:40:23.739Z,283.97
2019-05-01T02:45:29.810Z,285.60
2019-05-01T02:50:35.782Z,285.10
2019-05-01T03:00:49.374Z,276.07
2019-05-01T03:05:55.542Z,278.00
2019-05-01T03:11:01.819Z,276.20
2019-05-01T03:16:07.890Z,283.23
2019-05-01T03:21:16.045Z,278.40
2019-05-01T03:26:22.316Z,342.23
2019-05-01T03:36:51.996Z,336.23
2019-05-01T03:41:58.116Z,314.03
2019-05-01T03:47:04.140Z,294.43
2019-05-01T09:42:03.274Z,166.53
2019-05-01T09:52:18.828Z,116.90
2019-05-01T09:57:24.453Z,97.97
2019-05-01T10:02:30.925Z,103.90
2019-05-01T10:07:36.803Z,98.30
2019-05-01T10:12:47.104Z,93.12
2019-05-01T10:17:50.506Z,91.17
2019-05-01T10:23:01.768Z,87.93
2019-05-01T10:28:17.670Z,83.00
2019-05-01T10:33:28.974Z,83.42
2019-05-01T10:38:34.997Z,84.60
2019-05-01T10:43:40.962Z,78.83
2019-05-01T10:48:47.040Z,74.47
2019-05-01T10:59:03.638Z,189.17
2019-05-01T11:04:10.624Z,283.60
2019-05-01T11:14:22.848Z,278.37
2019-05-01T11:19:29.769Z,303.73
2019-05-01T11:24:38.824Z,290.30
2019-05-01T11:29:46.464Z,340.77
2019-05-01T11:34:57.376Z,431.10
2019-05-01T11:40:10.834Z,339.00
2019-05-01T11:45:16.804Z,290.40
2019-05-01T11:50:22.776Z,222.37
2019-05-01T11:55:28.845Z,161.90
2019-05-01T12:05:40.680Z,111.70
2019-05-01T12:10:46.756Z,100.73
2019-05-01T12:15:54.467Z,89.47
2019-05-01T12:21:02.220Z,79.43
2019-05-01T12:26:08.281Z,66.50
2019-05-01T12:31:14.277Z,62.03
2019-05-01T12:36:20.330Z,59.00
2019-05-01T12:41:27.713Z,57.10
2019-05-01T12:46:54.078Z,56.90
2019-05-01T12:52:10.344Z,54.90
2019-05-01T12:57:09.290Z,58.43
2019-05-01T13:02:15.281Z,54.83
2019-05-01T13:07:21.321Z,50.70
2019-05-01T13:12:27.388Z,50.87
2019-05-01T13:17:33.362Z,48.93
2019-05-01T13:22:39.740Z,48.50
2019-05-01T13:28:05.020Z,49.77
2019-05-01T13:33:11.274Z,49.90
2019-05-01T13:38:17.321Z,49.80
2019-05-01T13:43:22.991Z,47.10
2019-05-01T13:48:29.017Z,48.55
2019-05-01T13:53:34.998Z,46.40
2019-05-01T13:58:40.964Z,45.07
2019-05-01T14:03:46.958Z,49.13
2019-05-01T14:08:53.012Z,47.07
2019-05-01T14:19:04.677Z,47.57
2019-05-01T14:24:27.989Z,45.70
2019-05-01T14:29:34.090Z,44.55
2019-05-01T14:34:41.268Z,44.67
2019-05-01T14:39:47.294Z,43.80
2019-05-01T14:44:53.271Z,44.30
2019-05-01T14:49:59.276Z,42.07
2019-05-01T15:00:11.268Z,44.83
2019-05-01T15:05:17.400Z,41.93
2019-05-01T15:10:23.546Z,42.97
2019-05-01T15:15:38.616Z,43.73
2019-05-01T15:20:46.532Z,43.47
2019-05-01T15:25:52.708Z,41.33
2019-05-01T15:30:58.678Z,41.87
2019-05-01T15:36:06.269Z,38.87
2019-05-01T15:41:18.303Z,37.80
2019-05-01T15:46:41.577Z,36.40
2019-05-01T15:56:55.679Z,35.30
2019-05-01T16:02:01.643Z,34.35
2019-05-01T16:07:07.512Z,33.97
2019-05-01T16:12:13.589Z,36.73
2019-05-01T16:17:21.096Z,38.10
2019-05-01T16:22:27.270Z,34.67
2019-05-01T16:27:33.280Z,37.17
2019-05-01T16:37:47.597Z,33.67
2019-05-01T16:42:53.539Z,31.93
2019-05-01T16:47:59.963Z,30.90
2019-05-01T16:53:06.632Z,30.70
2019-05-01T16:58:14.029Z,30.60
2019-05-01T17:08:36.377Z,31.43
2019-05-01T17:13:42.271Z,31.13
2019-05-01T17:23:54.388Z,29.33
2019-05-01T17:29:00.466Z,28.70
2019-05-01T17:34:09.498Z,28.73
2019-05-01T17:39:15.681Z,28.33
2019-05-01T17:54:38.334Z,27.60
2019-05-01T17:59:46.255Z,26.37
2019-05-01T18:05:10.497Z,26.57
2019-05-01T18:10:16.721Z,26.80
2019-05-01T18:15:22.683Z,27.40
2019-05-01T18:20:28.664Z,27.67
2019-05-01T18:25:42.040Z,27.77
2019-05-01T18:35:55.386Z,26.10
2019-05-01T18:41:19.829Z,26.05
2019-05-01T18:46:26.035Z,26.20
2019-05-01T18:51:36.196Z,27.07
2019-05-01T18:56:39.665Z,26.57
2019-05-01T19:01:48.540Z,26.35
2019-05-01T19:06:54.452Z,26.43
2019-05-01T19:12:01.009Z,25.40
2019-05-01T19:17:07.568Z,23.87
2019-05-01T19:22:13.509Z,24.27
2019-05-01T19:27:21.235Z,25.57
2019-05-01T19:32:28.040Z,24.73
2019-05-01T19:37:34.777Z,25.80
2019-05-01T19:42:41.645Z,23.83
2019-05-01T19:47:47.876Z,26.37
2019-05-01T19:52:55.557Z,23.98
2019-05-01T19:58:01.527Z,25.07
2019-05-01T20:03:07.808Z,24.27
2019-05-01T20:08:13.675Z,23.60
2019-05-01T20:13:21.491Z,23.40
2019-05-01T20:23:34.566Z,25.77
2019-05-01T20:28:40.754Z,26.20
2019-05-01T20:33:46.702Z,24.37
2019-05-01T20:38:52.674Z,24.57
2019-05-01T20:43:58.801Z,25.33
2019-05-01T20:49:06.657Z,24.77
2019-05-01T20:54:12.635Z,23.10
2019-05-01T21:04:41.289Z,24.98
2019-05-01T21:09:57.301Z,25.00
2019-05-01T21:14:56.384Z,24.57
2019-05-01T21:20:03.797Z,23.83
2019-05-01T21:25:09.768Z,23.30
2019-05-01T21:30:15.631Z,22.93
2019-05-01T21:40:38.754Z,23.77
2019-05-01T21:45:37.004Z,24.43
2019-05-01T21:51:03.379Z,24.93
2019-05-01T21:56:09.867Z,25.13
2019-05-01T22:01:21.366Z,24.90
2019-05-01T22:06:32.425Z,23.90
2019-05-01T22:11:42.725Z,25.10
2019-05-01T22:16:48.692Z,23.67
2019-05-01T22:22:08.604Z,24.47
2019-05-01T22:27:16.096Z,24.70
2019-05-01T22:37:34.011Z,23.80
2019-05-01T22:42:39.877Z,24.15
2019-05-01T22:47:50.751Z,24.13
2019-05-01T22:52:54.016Z,24.70
2019-05-01T22:58:00.036Z,24.43
2019-05-01T23:03:07.623Z,22.97
2019-05-01T23:13:23.281Z,23.77
2019-05-01T23:23:34.909Z,25.97
2019-05-01T23:28:41.021Z,25.20
2019-05-01T23:33:50.555Z,25.57
2019-05-01T23:44:03.618Z,24.13
2019-05-01T23:49:10.039Z,25.13
2019-05-01T23:54:16.011Z,25.33
2019-05-01T23:59:21.994Z,25.57
